sensor_id;sensor_type;location;lat;lon;timestamp;P1;durP1;ratioP1;P2;durP2;ratioP2
7247;SDS011;3665;51.034;13.642;2023-10-31T00:01:30;6.17;;;5.57;;
7247;SDS011;3665;51.034;13.642;2023-10-31T00:06:18;8.03;;;5.67;;
7247;SDS011;3665;51.034;13.642;2023-10-31T00:11:05;9.10;;;5.80;;
7247;SDS011;3665;51.034;13.642;2023-10-31T00:15:52;6.20;;;5.43;;
7247;SDS011;3665;51.034;13.642;2023-10-31T00:20:39;7.10;;;5.87;;
7247;SDS011;3665;51.034;13.642;2023-10-31T00:25:26;8.87;;;7.00;;
7247;SDS011;3665;51.034;13.642;2023-10-31T00:30:12;8.17;;;6.53;;
7247;SDS011;3665;51.034;13.642;2023-10-31T00:35:04;8.47;;;6.93;;
7247;SDS011;3665;51.034;13.642;2023-10-31T00:39:48;11.50;;;8.23;;
7247;SDS011;3665;51.034;13.642;2023-10-31T00:44:39;13.33;;;7.90;;
7247;SDS011;3665;51.034;13.642;2023-10-31T00:49:23;11.73;;;8.33;;
7247;SDS011;3665;51.034;13.642;2023-10-31T00:54:18;10.37;;;8.83;;
7247;SDS011;3665;51.034;13.642;2023-10-31T00:59:03;13.50;;;8.90;;
7247;SDS011;3665;51.034;13.642;2023-10-31T01:03:52;12.93;;;9.33;;
7247;SDS011;3665;51.034;13.642;2023-10-31T01:08:41;10.93;;;8.87;;
7247;SDS011;3665;51.034;13.642;2023-10-31T01:13:27;9.93;;;8.50;;
7247;SDS011;3665;51.034;13.642;2023-10-31T01:18:18;10.30;;;8.77;;
7247;SDS011;3665;51.034;13.642;2023-10-31T01:28:27;12.37;;;8.40;;
7247;SDS011;3665;51.034;13.642;2023-10-31T01:33:11;9.63;;;8.73;;
7247;SDS011;3665;51.034;13.642;2023-10-31T01:38:04;10.33;;;9.33;;
7247;SDS011;3665;51.034;13.642;2023-10-31T01:43:04;9.83;;;8.83;;
7247;SDS011;3665;51.034;13.642;2023-10-31T01:47:52;10.53;;;8.90;;
7247;SDS011;3665;51.034;13.642;2023-10-31T01:52:39;10.23;;;9.20;;
7247;SDS011;3665;51.034;13.642;2023-10-31T01:57:26;11.47;;;9.00;;
7247;SDS011;3665;51.034;13.642;2023-10-31T02:02:14;11.33;;;8.47;;
7247;SDS011;3665;51.034;13.642;2023-10-31T02:12:42;13.43;;;10.40;;
7247;SDS011;3665;51.034;13.642;2023-10-31T02:17:29;14.47;;;11.23;;
7247;SDS011;3665;51.034;13.642;2023-10-31T02:22:20;14.80;;;11.93;;
7247;SDS011;3665;51.034;13.642;2023-10-31T02:27:27;12.23;;;10.43;;
7247;SDS011;3665;51.034;13.642;2023-10-31T02:38:00;16.30;;;14.53;;
7247;SDS011;3665;51.034;13.642;2023-10-31T04:56:54;3.60;;;2.97;;
7247;SDS011;3665;51.034;13.642;2023-10-31T05:01:43;3.60;;;2.47;;
7247;SDS011;3665;51.034;13.642;2023-10-31T05:06:31;2.53;;;2.03;;
7247;SDS011;3665;51.034;13.642;2023-10-31T05:11:18;5.20;;;2.10;;
7247;SDS011;3665;51.034;13.642;2023-10-31T05:16:12;2.50;;;2.30;;
7247;SDS011;3665;51.034;13.642;2023-10-31T05:20:55;2.70;;;1.73;;
7247;SDS011;3665;51.034;13.642;2023-10-31T05:25:42;2.77;;;1.50;;
7247;SDS011;3665;51.034;13.642;2023-10-31T05:30:35;1.53;;;1.43;;
7247;SDS011;3665;51.034;13.642;2023-10-31T05:35:19;1.43;;;1.33;;
7247;SDS011;3665;51.034;13.642;2023-10-31T05:40:12;2.17;;;1.43;;
7247;SDS011;3665;51.034;13.642;2023-10-31T05:45:03;1.73;;;1.63;;
7247;SDS011;3665;51.034;13.642;2023-10-31T05:50:09;4.23;;;2.53;;
7247;SDS011;3665;51.034;13.642;2023-10-31T05:55:02;1.10;;;1.00;;
7247;SDS011;3665;51.034;13.642;2023-10-31T05:59:50;2.90;;;0.90;;
7247;SDS011;3665;51.034;13.642;2023-10-31T06:04:40;0.90;;;0.90;;
7247;SDS011;3665;51.034;13.642;2023-10-31T06:09:28;1.20;;;1.00;;
7247;SDS011;3665;51.034;13.642;2023-10-31T06:14:15;1.17;;;0.80;;
7247;SDS011;3665;51.034;13.642;2023-10-31T06:19:00;1.03;;;0.97;;
7247;SDS011;3665;51.034;13.642;2023-10-31T06:23:46;1.47;;;0.90;;
7247;SDS011;3665;51.034;13.642;2023-10-31T06:28:43;1.07;;;0.70;;
7247;SDS011;3665;51.034;13.642;2023-10-31T06:33:43;1.17;;;0.97;;
7247;SDS011;3665;51.034;13.642;2023-10-31T06:38:29;0.57;;;0.50;;
7247;SDS011;3665;51.034;13.642;2023-10-31T06:48:25;1.17;;;0.50;;
7247;SDS011;3665;51.034;13.642;2023-10-31T06:53:11;0.70;;;0.70;;
7247;SDS011;3665;51.034;13.642;2023-10-31T06:57:59;1.40;;;0.70;;
7247;SDS011;3665;51.034;13.642;2023-10-31T07:02:48;0.60;;;0.60;;
7247;SDS011;3665;51.034;13.642;2023-10-31T07:12:39;1.30;;;1.20;;
7247;SDS011;3665;51.034;13.642;2023-10-31T07:17:37;1.27;;;0.70;;
7247;SDS011;3665;51.034;13.642;2023-10-31T07:22:30;0.97;;;0.60;;
7247;SDS011;3665;51.034;13.642;2023-10-31T07:27:22;0.47;;;0.40;;
7247;SDS011;3665;51.034;13.642;2023-10-31T07:32:14;0.53;;;0.50;;
7247;SDS011;3665;51.034;13.642;2023-10-31T07:37:12;0.97;;;0.50;;
7247;SDS011;3665;51.034;13.642;2023-10-31T07:42:03;0.63;;;0.40;;
7247;SDS011;3665;51.034;13.642;2023-10-31T07:46:50;0.30;;;0.30;;
7247;SDS011;3665;51.034;13.642;2023-10-31T07:51:36;0.47;;;0.47;;
7247;SDS011;3665;51.034;13.642;2023-10-31T07:56:22;2.00;;;0.40;;
7247;SDS011;3665;51.034;13.642;2023-10-31T08:01:07;0.70;;;0.60;;
7247;SDS011;3665;51.034;13.642;2023-10-31T08:06:00;0.50;;;0.37;;
7247;SDS011;3665;51.034;13.642;2023-10-31T08:10:47;0.40;;;0.40;;
7247;SDS011;3665;51.034;13.642;2023-10-31T08:15:40;0.50;;;0.50;;
7247;SDS011;3665;51.034;13.642;2023-10-31T08:20:24;1.27;;;0.40;;
7247;SDS011;3665;51.034;13.642;2023-10-31T08:25:12;1.70;;;0.40;;
7247;SDS011;3665;51.034;13.642;2023-10-31T08:29:59;0.20;;;0.20;;
7247;SDS011;3665;51.034;13.642;2023-10-31T08:34:47;0.37;;;0.37;;
7247;SDS011;3665;51.034;13.642;2023-10-31T08:39:44;0.30;;;0.30;;
7247;SDS011;3665;51.034;13.642;2023-10-31T08:49:45;0.57;;;0.40;;
7247;SDS011;3665;51.034;13.642;2023-10-31T08:54:32;1.30;;;0.40;;
7247;SDS011;3665;51.034;13.642;2023-10-31T08:59:18;0.30;;;0.30;;
7247;SDS011;3665;51.034;13.642;2023-10-31T09:04:16;0.83;;;0.40;;
7247;SDS011;3665;51.034;13.642;2023-10-31T09:19:37;0.50;;;0.37;;
7247;SDS011;3665;51.034;13.642;2023-10-31T09:24:24;0.50;;;0.40;;
7247;SDS011;3665;51.034;13.642;2023-10-31T09:29:11;0.30;;;0.30;;
7247;SDS011;3665;51.034;13.642;2023-10-31T09:34:09;0.30;;;0.30;;
7247;SDS011;3665;51.034;13.642;2023-10-31T15:39:55;1.33;;;1.27;;
7247;SDS011;3665;51.034;13.642;2023-10-31T15:44:40;1.13;;;1.07;;
7247;SDS011;3665;51.034;13.642;2023-10-31T15:49:28;0.80;;;0.80;;
7247;SDS011;3665;51.034;13.642;2023-10-31T15:54:16;0.90;;;0.90;;
7247;SDS011;3665;51.034;13.642;2023-10-31T16:05:45;1.20;;;1.00;;
7247;SDS011;3665;51.034;13.642;2023-10-31T16:10:32;1.57;;;1.40;;
7247;SDS011;3665;51.034;13.642;2023-10-31T16:15:20;0.60;;;0.60;;
7247;SDS011;3665;51.034;13.642;2023-10-31T16:20:07;1.53;;;1.10;;
7247;SDS011;3665;51.034;13.642;2023-10-31T16:30:15;3.80;;;2.90;;
7247;SDS011;3665;51.034;13.642;2023-10-31T16:35:05;5.10;;;1.50;;
7247;SDS011;3665;51.034;13.642;2023-10-31T16:39:59;2.57;;;1.50;;
7247;SDS011;3665;51.034;13.642;2023-10-31T16:50:20;3.40;;;1.30;;
7247;SDS011;3665;51.034;13.642;2023-10-31T16:55:20;0.83;;;0.80;;
7247;SDS011;3665;51.034;13.642;2023-10-31T17:00:07;1.13;;;1.03;;
7247;SDS011;3665;51.034;13.642;2023-10-31T17:04:57;1.30;;;1.20;;
7247;SDS011;3665;51.034;13.642;2023-10-31T17:09:43;2.00;;;1.80;;
7247;SDS011;3665;51.034;13.642;2023-10-31T17:14:33;1.17;;;1.07;;
7247;SDS011;3665;51.034;13.642;2023-10-31T17:19:20;0.83;;;0.83;;
7247;SDS011;3665;51.034;13.642;2023-10-31T17:29:43;1.20;;;1.10;;
7247;SDS011;3665;51.034;13.642;2023-10-31T17:34:31;0.90;;;0.90;;
7247;SDS011;3665;51.034;13.642;2023-10-31T17:50:47;3.17;;;1.57;;
7247;SDS011;3665;51.034;13.642;2023-10-31T17:55:36;2.00;;;1.80;;
7247;SDS011;3665;51.034;13.642;2023-10-31T18:00:25;1.60;;;1.43;;
7247;SDS011;3665;51.034;13.642;2023-10-31T18:10:31;3.43;;;1.40;;
7247;SDS011;3665;51.034;13.642;2023-10-31T18:15:21;1.50;;;1.23;;
7247;SDS011;3665;51.034;13.642;2023-10-31T18:20:10;1.47;;;1.20;;
7247;SDS011;3665;51.034;13.642;2023-10-31T18:24:54;1.40;;;1.20;;
7247;SDS011;3665;51.034;13.642;2023-10-31T18:29:43;1.30;;;1.13;;
7247;SDS011;3665;51.034;13.642;2023-10-31T18:34:48;1.33;;;1.03;;
7247;SDS011;3665;51.034;13.642;2023-10-31T18:44:41;1.83;;;1.20;;
7247;SDS011;3665;51.034;13.642;2023-10-31T18:49:35;1.90;;;1.20;;
7247;SDS011;3665;51.034;13.642;2023-10-31T18:54:33;2.83;;;1.10;;
7247;SDS011;3665;51.034;13.642;2023-10-31T18:59:38;2.23;;;1.90;;
7247;SDS011;3665;51.034;13.642;2023-10-31T19:04:23;1.97;;;1.80;;
7247;SDS011;3665;51.034;13.642;2023-10-31T19:09:12;2.07;;;1.20;;
7247;SDS011;3665;51.034;13.642;2023-10-31T19:13:58;2.60;;;1.30;;
7247;SDS011;3665;51.034;13.642;2023-10-31T19:18:55;2.60;;;1.27;;
7247;SDS011;3665;51.034;13.642;2023-10-31T19:23:50;2.27;;;1.30;;
7247;SDS011;3665;51.034;13.642;2023-10-31T19:28:40;3.07;;;1.40;;
7247;SDS011;3665;51.034;13.642;2023-10-31T19:33:28;2.53;;;1.00;;
7247;SDS011;3665;51.034;13.642;2023-10-31T19:38:16;1.10;;;1.00;;
7247;SDS011;3665;51.034;13.642;2023-10-31T19:43:04;1.43;;;0.90;;
7247;SDS011;3665;51.034;13.642;2023-10-31T19:47:51;1.63;;;0.87;;
7247;SDS011;3665;51.034;13.642;2023-10-31T19:52:39;2.63;;;1.03;;
7247;SDS011;3665;51.034;13.642;2023-10-31T19:57:28;1.67;;;1.07;;
7247;SDS011;3665;51.034;13.642;2023-10-31T20:02:15;3.20;;;1.13;;
7247;SDS011;3665;51.034;13.642;2023-10-31T20:07:02;2.73;;;1.33;;
7247;SDS011;3665;51.034;13.642;2023-10-31T20:11:52;2.13;;;1.00;;
7247;SDS011;3665;51.034;13.642;2023-10-31T20:16:40;2.33;;;1.43;;
7247;SDS011;3665;51.034;13.642;2023-10-31T20:21:30;0.80;;;0.80;;
7247;SDS011;3665;51.034;13.642;2023-10-31T20:26:35;9.47;;;2.67;;
7247;SDS011;3665;51.034;13.642;2023-10-31T20:31:34;2.37;;;1.10;;
7247;SDS011;3665;51.034;13.642;2023-10-31T20:36:26;1.67;;;0.90;;
7247;SDS011;3665;51.034;13.642;2023-10-31T20:41:19;1.23;;;1.10;;
7247;SDS011;3665;51.034;13.642;2023-10-31T20:46:15;1.10;;;1.00;;
7247;SDS011;3665;51.034;13.642;2023-10-31T20:51:03;1.20;;;1.00;;
7247;SDS011;3665;51.034;13.642;2023-10-31T20:55:50;1.20;;;0.83;;
7247;SDS011;3665;51.034;13.642;2023-10-31T21:00:40;1.13;;;1.00;;
7247;SDS011;3665;51.034;13.642;2023-10-31T21:05:27;1.13;;;0.93;;
7247;SDS011;3665;51.034;13.642;2023-10-31T21:10:32;2.00;;;1.10;;
7247;SDS011;3665;51.034;13.642;2023-10-31T21:15:43;2.73;;;1.03;;
7247;SDS011;3665;51.034;13.642;2023-10-31T21:20:39;3.10;;;0.90;;
7247;SDS011;3665;51.034;13.642;2023-10-31T21:25:43;3.23;;;1.03;;
7247;SDS011;3665;51.034;13.642;2023-10-31T21:30:36;1.27;;;0.80;;
7247;SDS011;3665;51.034;13.642;2023-10-31T21:35:22;1.90;;;0.97;;
7247;SDS011;3665;51.034;13.642;2023-10-31T21:40:09;3.03;;;1.10;;
